sensor_id;sensor_type;location;lat;lon;timestamp;temperature;humidity
3134;DHT22;1577;49.912;10.924;2022-09-09T00:03:53;14.90;99.90
3134;DHT22;1577;49.912;10.924;2022-09-09T00:06:30;14.90;99.90
3134;DHT22;1577;49.912;10.924;2022-09-09T00:09:21;15.00;99.90
3134;DHT22;1577;49.912;10.924;2022-09-09T00:12:00;14.90;99.90
3134;DHT22;1577;49.912;10.924;2022-09-09T00:17:43;14.90;99.90
3134;DHT22;1577;49.912;10.924;2022-09-09T00:22:50;15.00;99.90
3134;DHT22;1577;49.912;10.924;2022-09-09T00:25:43;15.00;99.90
3134;DHT22;1577;49.912;10.924;2022-09-09T00:28:20;15.10;99.90
3134;DHT22;1577;49.912;10.924;2022-09-09T00:30:47;15.00;99.90
3134;DHT22;1577;49.912;10.924;2022-09-09T00:33:16;15.00;99.90
3134;DHT22;1577;49.912;10.924;2022-09-09T00:35:57;15.10;99.90
3134;DHT22;1577;49.912;10.924;2022-09-09T00:41:03;15.20;99.90
3134;DHT22;1577;49.912;10.924;2022-09-09T00:43:35;15.30;99.90
3134;DHT22;1577;49.912;10.924;2022-09-09T00:46:23;15.30;99.90
3134;DHT22;1577;49.912;10.924;2022-09-09T00:52:20;15.30;99.90
3134;DHT22;1577;49.912;10.924;2022-09-09T00:55:03;15.40;99.90
3134;DHT22;1577;49.912;10.924;2022-09-09T00:57:31;15.40;99.90
3134;DHT22;1577;49.912;10.924;2022-09-09T01:00:16;15.30;99.90
3134;DHT22;1577;49.912;10.924;2022-09-09T01:07:49;15.50;99.90
3134;DHT22;1577;49.912;10.924;2022-09-09T01:13:19;15.40;99.90
3134;DHT22;1577;49.912;10.924;2022-09-09T01:15:48;15.40;99.90
3134;DHT22;1577;49.912;10.924;2022-09-09T01:18:17;15.40;99.90
3134;DHT22;1577;49.912;10.924;2022-09-09T01:28:46;15.40;99.90
3134;DHT22;1577;49.912;10.924;2022-09-09T01:31:17;15.30;99.90
3134;DHT22;1577;49.912;10.924;2022-09-09T01:33:43;15.30;99.90
3134;DHT22;1577;49.912;10.924;2022-09-09T01:36:24;15.30;99.90
3134;DHT22;1577;49.912;10.924;2022-09-09T01:38:52;15.30;99.90
3134;DHT22;1577;49.912;10.924;2022-09-09T01:41:17;15.20;99.90
3134;DHT22;1577;49.912;10.924;2022-09-09T01:43:43;15.20;99.90
3134;DHT22;1577;49.912;10.924;2022-09-09T01:46:10;15.10;99.90
3134;DHT22;1577;49.912;10.924;2022-09-09T01:48:37;15.10;99.90
3134;DHT22;1577;49.912;10.924;2022-09-09T01:51:03;15.00;99.90
3134;DHT22;1577;49.912;10.924;2022-09-09T01:53:28;15.00;99.90
3134;DHT22;1577;49.912;10.924;2022-09-09T02:04:24;15.00;99.90
3134;DHT22;1577;49.912;10.924;2022-09-09T02:06:56;15.00;99.90
3134;DHT22;1577;49.912;10.924;2022-09-09T02:09:26;15.00;99.90
3134;DHT22;1577;49.912;10.924;2022-09-09T02:11:58;15.10;99.90
3134;DHT22;1577;49.912;10.924;2022-09-09T02:14:30;15.20;99.90
3134;DHT22;1577;49.912;10.924;2022-09-09T02:17:03;15.20;99.90
3134;DHT22;1577;49.912;10.924;2022-09-09T02:19:37;15.20;99.90
3134;DHT22;1577;49.912;10.924;2022-09-09T02:22:04;15.20;99.90
3134;DHT22;1577;49.912;10.924;2022-09-09T02:24:33;15.20;99.90
3134;DHT22;1577;49.912;10.924;2022-09-09T02:27:01;15.20;99.90
3134;DHT22;1577;49.912;10.924;2022-09-09T02:29:33;15.20;99.90
3134;DHT22;1577;49.912;10.924;2022-09-09T02:32:02;15.20;99.90
3134;DHT22;1577;49.912;10.924;2022-09-09T02:34:30;15.20;99.90
3134;DHT22;1577;49.912;10.924;2022-09-09T02:36:57;15.20;99.90
3134;DHT22;1577;49.912;10.924;2022-09-09T02:39:25;15.10;99.90
3134;DHT22;1577;49.912;10.924;2022-09-09T02:41:51;15.10;99.90
3134;DHT22;1577;49.912;10.924;2022-09-09T02:44:18;15.20;99.90
3134;DHT22;1577;49.912;10.924;2022-09-09T02:49:36;15.20;99.90
3134;DHT22;1577;49.912;10.924;2022-09-09T02:52:07;15.20;99.90
3134;DHT22;1577;49.912;10.924;2022-09-09T02:54:35;15.30;99.90
3134;DHT22;1577;49.912;10.924;2022-09-09T02:59:34;15.30;99.90
3134;DHT22;1577;49.912;10.924;2022-09-09T03:01:59;15.30;99.90
3134;DHT22;1577;49.912;10.924;2022-09-09T03:04:25;15.30;99.90
3134;DHT22;1577;49.912;10.924;2022-09-09T03:06:50;15.30;99.90
3134;DHT22;1577;49.912;10.924;2022-09-09T03:09:16;15.30;99.90
3134;DHT22;1577;49.912;10.924;2022-09-09T03:11:42;15.30;99.90
3134;DHT22;1577;49.912;10.924;2022-09-09T03:14:07;15.30;99.90
3134;DHT22;1577;49.912;10.924;2022-09-09T03:16:33;15.30;99.90
3134;DHT22;1577;49.912;10.924;2022-09-09T03:19:00;15.40;99.90
3134;DHT22;1577;49.912;10.924;2022-09-09T03:21:26;15.40;99.90
3134;DHT22;1577;49.912;10.924;2022-09-09T03:23:51;15.40;99.90
3134;DHT22;1577;49.912;10.924;2022-09-09T03:26:17;15.40;99.90
3134;DHT22;1577;49.912;10.924;2022-09-09T03:28:43;15.40;99.90
3134;DHT22;1577;49.912;10.924;2022-09-09T03:31:09;15.40;99.90
3134;DHT22;1577;49.912;10.924;2022-09-09T03:33:37;15.40;99.90
3134;DHT22;1577;49.912;10.924;2022-09-09T03:36:03;15.40;99.90
3134;DHT22;1577;49.912;10.924;2022-09-09T03:38:29;15.40;99.90
3134;DHT22;1577;49.912;10.924;2022-09-09T03:40:56;15.40;99.90
3134;DHT22;1577;49.912;10.924;2022-09-09T03:43:25;15.40;99.90
3134;DHT22;1577;49.912;10.924;2022-09-09T03:45:52;15.40;99.90
3134;DHT22;1577;49.912;10.924;2022-09-09T03:48:18;15.30;99.90
3134;DHT22;1577;49.912;10.924;2022-09-09T03:50:48;15.40;99.90
3134;DHT22;1577;49.912;10.924;2022-09-09T03:53:16;15.30;99.90
3134;DHT22;1577;49.912;10.924;2022-09-09T03:55:45;15.40;99.90
3134;DHT22;1577;49.912;10.924;2022-09-09T03:58:15;15.30;99.90
3134;DHT22;1577;49.912;10.924;2022-09-09T04:00:41;15.30;99.90
3134;DHT22;1577;49.912;10.924;2022-09-09T04:03:10;15.40;99.90
3134;DHT22;1577;49.912;10.924;2022-09-09T04:05:35;15.50;99.90
3134;DHT22;1577;49.912;10.924;2022-09-09T04:08:07;15.50;99.90
3134;DHT22;1577;49.912;10.924;2022-09-09T04:10:33;15.40;99.90
3134;DHT22;1577;49.912;10.924;2022-09-09T04:13:02;15.40;99.90
3134;DHT22;1577;49.912;10.924;2022-09-09T04:15:27;15.40;99.90
3134;DHT22;1577;49.912;10.924;2022-09-09T04:17:53;15.30;99.90
3134;DHT22;1577;49.912;10.924;2022-09-09T04:20:18;15.40;99.90
3134;DHT22;1577;49.912;10.924;2022-09-09T04:22:44;15.40;99.90
3134;DHT22;1577;49.912;10.924;2022-09-09T04:25:10;15.40;99.90
3134;DHT22;1577;49.912;10.924;2022-09-09T04:27:35;15.50;99.90
3134;DHT22;1577;49.912;10.924;2022-09-09T04:30:01;15.50;99.90
3134;DHT22;1577;49.912;10.924;2022-09-09T04:32:27;15.40;99.90
3134;DHT22;1577;49.912;10.924;2022-09-09T04:34:53;15.40;99.90
3134;DHT22;1577;49.912;10.924;2022-09-09T04:37:18;15.50;99.90
3134;DHT22;1577;49.912;10.924;2022-09-09T04:39:44;15.40;99.90
3134;DHT22;1577;49.912;10.924;2022-09-09T04:42:10;15.50;99.90
3134;DHT22;1577;49.912;10.924;2022-09-09T04:44:36;15.50;99.90
3134;DHT22;1577;49.912;10.924;2022-09-09T04:47:02;15.50;99.90
3134;DHT22;1577;49.912;10.924;2022-09-09T04:49:27;15.50;99.90
3134;DHT22;1577;49.912;10.924;2022-09-09T04:51:53;15.50;99.90
3134;DHT22;1577;49.912;10.924;2022-09-09T04:54:18;15.60;99.90
3134;DHT22;1577;49.912;10.924;2022-09-09T04:56:44;15.60;99.90
3134;DHT22;1577;49.912;10.924;2022-09-09T04:59:10;15.50;99.90
3134;DHT22;1577;49.912;10.924;2022-09-09T05:01:35;15.60;99.90
3134;DHT22;1577;49.912;10.924;2022-09-09T05:04:02;15.60;99.90
3134;DHT22;1577;49.912;10.924;2022-09-09T05:06:28;15.60;99.90
3134;DHT22;1577;49.912;10.924;2022-09-09T05:08:56;15.70;99.90
3134;DHT22;1577;49.912;10.924;2022-09-09T05:11:28;15.70;99.90
3134;DHT22;1577;49.912;10.924;2022-09-09T05:13:54;15.70;99.90
3134;DHT22;1577;49.912;10.924;2022-09-09T05:16:22;15.70;99.90
3134;DHT22;1577;49.912;10.924;2022-09-09T05:18:48;15.70;99.90
3134;DHT22;1577;49.912;10.924;2022-09-09T05:21:17;15.70;99.90
3134;DHT22;1577;49.912;10.924;2022-09-09T05:23:44;15.80;99.90
3134;DHT22;1577;49.912;10.924;2022-09-09T05:26:14;15.70;99.90
3134;DHT22;1577;49.912;10.924;2022-09-09T05:28:40;15.70;99.90
3134;DHT22;1577;49.912;10.924;2022-09-09T05:31:07;15.80;99.90
3134;DHT22;1577;49.912;10.924;2022-09-09T05:33:34;15.80;99.90
3134;DHT22;1577;49.912;10.924;2022-09-09T05:36:03;15.80;99.90
3134;DHT22;1577;49.912;10.924;2022-09-09T05:38:30;15.90;99.90
3134;DHT22;1577;49.912;10.924;2022-09-09T05:40:56;15.90;99.90
3134;DHT22;1577;49.912;10.924;2022-09-09T05:43:22;16.00;99.90
3134;DHT22;1577;49.912;10.924;2022-09-09T05:45:57;16.00;99.90
3134;DHT22;1577;49.912;10.924;2022-09-09T05:48:23;16.10;99.90
3134;DHT22;1577;49.912;10.924;2022-09-09T05:50:53;16.10;99.90
3134;DHT22;1577;49.912;10.924;2022-09-09T05:53:19;16.10;99.90
3134;DHT22;1577;49.912;10.924;2022-09-09T05:55:45;16.20;99.90
3134;DHT22;1577;49.912;10.924;2022-09-09T05:58:11;16.20;99.90
3134;DHT22;1577;49.912;10.924;2022-09-09T06:00:36;16.20;99.90
3134;DHT22;1577;49.912;10.924;2022-09-09T06:03:03;16.20;99.90
3134;DHT22;1577;49.912;10.924;2022-09-09T06:05:29;16.20;99.90
3134;DHT22;1577;49.912;10.924;2022-09-09T06:07:54;16.20;99.90
3134;DHT22;1577;49.912;10.924;2022-09-09T06:10:21;16.20;99.90
3134;DHT22;1577;49.912;10.924;2022-09-09T06:12:47;16.20;99.90
3134;DHT22;1577;49.912;10.924;2022-09-09T06:15:12;16.20;99.90
3134;DHT22;1577;49.912;10.924;2022-09-09T06:17:38;16.30;99.90
3134;DHT22;1577;49.912;10.924;2022-09-09T06:20:04;16.30;99.90
3134;DHT22;1577;49.912;10.924;2022-09-09T06:22:30;16.30;99.90
3134;DHT22;1577;49.912;10.924;2022-09-09T06:24:56;16.20;99.90
3134;DHT22;1577;49.912;10.924;2022-09-09T06:27:22;16.20;99.90
3134;DHT22;1577;49.912;10.924;2022-09-09T06:29:47;16.20;99.90
3134;DHT22;1577;49.912;10.924;2022-09-09T06:32:13;16.20;99.90
3134;DHT22;1577;49.912;10.924;2022-09-09T06:34:39;16.20;99.90
3134;DHT22;1577;49.912;10.924;2022-09-09T06:37:05;16.20;99.90
3134;DHT22;1577;49.912;10.924;2022-09-09T06:39:31;16.30;99.90
3134;DHT22;1577;49.912;10.924;2022-09-09T06:41:57;16.50;99.90
3134;DHT22;1577;49.912;10.924;2022-09-09T06:44:24;16.70;99.90
3134;DHT22;1577;49.912;10.924;2022-09-09T06:46:52;17.00;99.90
3134;DHT22;1577;49.912;10.924;2022-09-09T06:49:17;17.20;99.90
3134;DHT22;1577;49.912;10.924;2022-09-09T06:51:43;17.30;99.90
3134;DHT22;1577;49.912;10.924;2022-09-09T06:54:10;17.40;99.90
3134;DHT22;1577;49.912;10.924;2022-09-09T06:56:38;17.50;99.90
3134;DHT22;1577;49.912;10.924;2022-09-09T06:59:06;17.60;99.90
3134;DHT22;1577;49.912;10.924;2022-09-09T07:01:34;17.80;99.90
3134;DHT22;1577;49.912;10.924;2022-09-09T07:04:01;17.90;99.90
3134;DHT22;1577;49.912;10.924;2022-09-09T07:06:30;18.10;99.90
3134;DHT22;1577;49.912;10.924;2022-09-09T07:08:58;18.20;99.90
3134;DHT22;1577;49.912;10.924;2022-09-09T07:11:29;18.30;99.90
3134;DHT22;1577;49.912;10.924;2022-09-09T07:13:57;18.30;99.90
3134;DHT22;1577;49.912;10.924;2022-09-09T07:16:24;18.50;99.90
3134;DHT22;1577;49.912;10.924;2022-09-09T07:18:51;18.70;99.90
3134;DHT22;1577;49.912;10.924;2022-09-09T07:21:17;18.80;99.90
3134;DHT22;1577;49.912;10.924;2022-09-09T07:23:44;19.00;99.90
3134;DHT22;1577;49.912;10.924;2022-09-09T07:26:15;19.00;99.90
3134;DHT22;1577;49.912;10.924;2022-09-09T07:28:41;19.10;99.90
3134;DHT22;1577;49.912;10.924;2022-09-09T07:31:13;19.30;99.90
3134;DHT22;1577;49.912;10.924;2022-09-09T07:33:39;19.60;99.90
3134;DHT22;1577;49.912;10.924;2022-09-09T07:36:07;19.90;99.90
3134;DHT22;1577;49.912;10.924;2022-09-09T07:38:44;20.50;99.90
3134;DHT22;1577;49.912;10.924;2022-09-09T07:41:17;20.90;99.90
3134;DHT22;1577;49.912;10.924;2022-09-09T07:43:45;21.20;99.90
3134;DHT22;1577;49.912;10.924;2022-09-09T07:46:12;21.30;99.90
3134;DHT22;1577;49.912;10.924;2022-09-09T07:48:39;21.30;99.90
3134;DHT22;1577;49.912;10.924;2022-09-09T07:51:11;21.30;99.90
3134;DHT22;1577;49.912;10.924;2022-09-09T07:53:38;21.30;99.90
3134;DHT22;1577;49.912;10.924;2022-09-09T07:56:07;21.20;99.90
3134;DHT22;1577;49.912;10.924;2022-09-09T07:58:35;21.00;99.90
3134;DHT22;1577;49.912;10.924;2022-09-09T08:01:09;20.90;99.90
3134;DHT22;1577;49.912;10.924;2022-09-09T08:03:35;20.80;99.90
3134;DHT22;1577;49.912;10.924;2022-09-09T08:06:06;20.80;99.90
3134;DHT22;1577;49.912;10.924;2022-09-09T08:08:33;20.70;99.90
3134;DHT22;1577;49.912;10.924;2022-09-09T08:11:08;20.70;99.90
3134;DHT22;1577;49.912;10.924;2022-09-09T08:13:38;20.80;99.90
3134;DHT22;1577;49.912;10.924;2022-09-09T08:16:12;21.00;99.90
3134;DHT22;1577;49.912;10.924;2022-09-09T08:18:38;21.10;99.90
3134;DHT22;1577;49.912;10.924;2022-09-09T08:21:12;21.20;99.90
3134;DHT22;1577;49.912;10.924;2022-09-09T08:23:42;21.30;99.90
3134;DHT22;1577;49.912;10.924;2022-09-09T08:31:07;21.40;99.90
3134;DHT22;1577;49.912;10.924;2022-09-09T08:33:33;21.50;99.90
3134;DHT22;1577;49.912;10.924;2022-09-09T08:35:59;21.50;99.90
3134;DHT22;1577;49.912;10.924;2022-09-09T08:38:24;21.40;99.90
3134;DHT22;1577;49.912;10.924;2022-09-09T08:40:52;21.30;99.90
3134;DHT22;1577;49.912;10.924;2022-09-09T08:43:22;21.30;99.90
3134;DHT22;1577;49.912;10.924;2022-09-09T08:46:06;21.30;99.90
3134;DHT22;1577;49.912;10.924;2022-09-09T08:48:56;21.40;99.90
3134;DHT22;1577;49.912;10.924;2022-09-09T08:51:27;21.40;99.90
3134;DHT22;1577;49.912;10.924;2022-09-09T08:53:54;21.50;99.90
3134;DHT22;1577;49.912;10.924;2022-09-09T08:56:24;21.60;99.90
3134;DHT22;1577;49.912;10.924;2022-09-09T08:58:55;21.60;99.90
3134;DHT22;1577;49.912;10.924;2022-09-09T09:12:00;21.80;99.90
3134;DHT22;1577;49.912;10.924;2022-09-09T09:17:19;22.00;99.90
3134;DHT22;1577;49.912;10.924;2022-09-09T09:19:47;22.10;99.90
3134;DHT22;1577;49.912;10.924;2022-09-09T10:19:45;22.10;99.90
3134;DHT22;1577;49.912;10.924;2022-09-09T10:22:19;23.70;97.70
3134;DHT22;1577;49.912;10.924;2022-09-09T10:25:01;23.80;97.70
3134;DHT22;1577;49.912;10.924;2022-09-09T10:33:45;23.70;96.80
3134;DHT22;1577;49.912;10.924;2022-09-09T10:36:23;23.60;96.80
3134;DHT22;1577;49.912;10.924;2022-09-09T10:39:34;23.40;96.20
3134;DHT22;1577;49.912;10.924;2022-09-09T10:50:20;23.30;97.00
3134;DHT22;1577;49.912;10.924;2022-09-09T10:52:57;23.40;96.70
3134;DHT22;1577;49.912;10.924;2022-09-09T10:55:33;23.60;96.90
3134;DHT22;1577;49.912;10.924;2022-09-09T10:58:03;23.80;96.50
3134;DHT22;1577;49.912;10.924;2022-09-09T11:00:47;23.90;95.40
3134;DHT22;1577;49.912;10.924;2022-09-09T11:03:27;24.00;95.50
3134;DHT22;1577;49.912;10.924;2022-09-09T11:06:05;24.00;94.70
3134;DHT22;1577;49.912;10.924;2022-09-09T11:08:34;23.80;94.10
3134;DHT22;1577;49.912;10.924;2022-09-09T11:11:18;23.60;93.70
3134;DHT22;1577;49.912;10.924;2022-09-09T11:13:53;23.50;93.90
3134;DHT22;1577;49.912;10.924;2022-09-09T11:18:47;23.50;94.30
3134;DHT22;1577;49.912;10.924;2022-09-09T11:21:23;23.40;94.80
3134;DHT22;1577;49.912;10.924;2022-09-09T11:24:09;23.30;95.30
3134;DHT22;1577;49.912;10.924;2022-09-09T11:26:58;23.20;95.60
3134;DHT22;1577;49.912;10.924;2022-09-09T11:29:37;23.30;95.70
3134;DHT22;1577;49.912;10.924;2022-09-09T11:32:09;23.40;95.60
3134;DHT22;1577;49.912;10.924;2022-09-09T11:34:53;23.30;95.00
3134;DHT22;1577;49.912;10.924;2022-09-09T11:38:15;23.20;95.20
3134;DHT22;1577;49.912;10.924;2022-09-09T11:40:22;23.20;95.20
3134;DHT22;1577;49.912;10.924;2022-09-09T11:42:49;23.30;95.20
3134;DHT22;1577;49.912;10.924;2022-09-09T11:45:26;23.40;95.20
3134;DHT22;1577;49.912;10.924;2022-09-09T11:47:56;23.60;93.30
3134;DHT22;1577;49.912;10.924;2022-09-09T11:52:48;23.70;93.60
3134;DHT22;1577;49.912;10.924;2022-09-09T11:55:29;23.80;93.50
3134;DHT22;1577;49.912;10.924;2022-09-09T11:58:01;23.90;93.50
3134;DHT22;1577;49.912;10.924;2022-09-09T12:00:45;24.00;93.10
3134;DHT22;1577;49.912;10.924;2022-09-09T12:03:39;24.10;93.20
3134;DHT22;1577;49.912;10.924;2022-09-09T12:06:13;24.00;92.40
3134;DHT22;1577;49.912;10.924;2022-09-09T12:08:47;24.00;93.00
3134;DHT22;1577;49.912;10.924;2022-09-09T12:11:27;24.10;93.30
3134;DHT22;1577;49.912;10.924;2022-09-09T12:13:58;24.00;93.50
3134;DHT22;1577;49.912;10.924;2022-09-09T12:16:34;23.80;93.90
3134;DHT22;1577;49.912;10.924;2022-09-09T12:19:05;23.40;91.90
3134;DHT22;1577;49.912;10.924;2022-09-09T12:24:34;22.60;91.60
3134;DHT22;1577;49.912;10.924;2022-09-09T12:27:11;22.30;91.10
3134;DHT22;1577;49.912;10.924;2022-09-09T12:30:02;22.00;91.60
3134;DHT22;1577;49.912;10.924;2022-09-09T12:32:29;21.80;92.20
3134;DHT22;1577;49.912;10.924;2022-09-09T12:35:00;21.70;91.80
3134;DHT22;1577;49.912;10.924;2022-09-09T12:42:29;21.50;91.10
3134;DHT22;1577;49.912;10.924;2022-09-09T12:47:28;21.30;91.30
3134;DHT22;1577;49.912;10.924;2022-09-09T12:49:56;21.30;90.90
3134;DHT22;1577;49.912;10.924;2022-09-09T12:52:36;21.30;91.20
3134;DHT22;1577;49.912;10.924;2022-09-09T12:55:05;21.20;91.20
3134;DHT22;1577;49.912;10.924;2022-09-09T12:57:36;21.10;95.50
3134;DHT22;1577;49.912;10.924;2022-09-09T13:00:12;21.00;95.80
3134;DHT22;1577;49.912;10.924;2022-09-09T13:05:19;21.10;94.90
3134;DHT22;1577;49.912;10.924;2022-09-09T13:07:45;21.20;95.00
3134;DHT22;1577;49.912;10.924;2022-09-09T13:10:12;21.30;93.70
3134;DHT22;1577;49.912;10.924;2022-09-09T13:12:38;21.40;93.40
3134;DHT22;1577;49.912;10.924;2022-09-09T13:15:04;21.50;93.10
3134;DHT22;1577;49.912;10.924;2022-09-09T13:17:36;21.60;92.30
3134;DHT22;1577;49.912;10.924;2022-09-09T13:20:02;21.60;92.70
3134;DHT22;1577;49.912;10.924;2022-09-09T13:22:38;21.70;92.30
3134;DHT22;1577;49.912;10.924;2022-09-09T13:27:40;21.70;92.10
3134;DHT22;1577;49.912;10.924;2022-09-09T13:30:32;21.90;92.00
3134;DHT22;1577;49.912;10.924;2022-09-09T13:35:30;22.30;91.70
3134;DHT22;1577;49.912;10.924;2022-09-09T13:37:56;22.50;90.60
3134;DHT22;1577;49.912;10.924;2022-09-09T13:40:23;22.60;90.60
3134;DHT22;1577;49.912;10.924;2022-09-09T13:42:52;22.70;90.80
3134;DHT22;1577;49.912;10.924;2022-09-09T13:45:22;22.70;90.70
3134;DHT22;1577;49.912;10.924;2022-09-09T13:47:49;22.60;90.50
3134;DHT22;1577;49.912;10.924;2022-09-09T13:50:28;22.60;90.10
3134;DHT22;1577;49.912;10.924;2022-09-09T13:52:56;22.70;90.60
3134;DHT22;1577;49.912;10.924;2022-09-09T13:55:24;22.70;90.30
3134;DHT22;1577;49.912;10.924;2022-09-09T13:57:57;22.90;89.60
3134;DHT22;1577;49.912;10.924;2022-09-09T14:00:24;23.10;89.90
3134;DHT22;1577;49.912;10.924;2022-09-09T14:02:51;23.10;89.00
3134;DHT22;1577;49.912;10.924;2022-09-09T14:05:19;23.00;89.40
3134;DHT22;1577;49.912;10.924;2022-09-09T14:07:45;22.90;88.60
3134;DHT22;1577;49.912;10.924;2022-09-09T14:10:11;22.80;88.70
3134;DHT22;1577;49.912;10.924;2022-09-09T14:12:37;22.80;87.50
3134;DHT22;1577;49.912;10.924;2022-09-09T14:15:04;22.80;86.70
3134;DHT22;1577;49.912;10.924;2022-09-09T14:17:30;22.90;88.20
3134;DHT22;1577;49.912;10.924;2022-09-09T14:19:57;23.00;88.90
3134;DHT22;1577;49.912;10.924;2022-09-09T14:22:23;23.10;90.10
3134;DHT22;1577;49.912;10.924;2022-09-09T14:24:49;23.20;90.30
3134;DHT22;1577;49.912;10.924;2022-09-09T14:27:16;23.30;90.80
3134;DHT22;1577;49.912;10.924;2022-09-09T14:29:42;23.30;90.20
3134;DHT22;1577;49.912;10.924;2022-09-09T14:32:09;23.40;85.90
3134;DHT22;1577;49.912;10.924;2022-09-09T14:34:35;23.30;88.20
3134;DHT22;1577;49.912;10.924;2022-09-09T14:37:01;23.20;91.00
3134;DHT22;1577;49.912;10.924;2022-09-09T14:39:26;23.20;90.80
3134;DHT22;1577;49.912;10.924;2022-09-09T14:41:52;23.10;91.10
3134;DHT22;1577;49.912;10.924;2022-09-09T14:44:18;23.10;91.10
3134;DHT22;1577;49.912;10.924;2022-09-09T14:46:44;23.10;91.30
3134;DHT22;1577;49.912;10.924;2022-09-09T14:49:09;23.00;91.30
3134;DHT22;1577;49.912;10.924;2022-09-09T14:51:38;22.90;91.60
3134;DHT22;1577;49.912;10.924;2022-09-09T14:54:04;22.90;91.50
3134;DHT22;1577;49.912;10.924;2022-09-09T14:56:33;22.90;91.90
3134;DHT22;1577;49.912;10.924;2022-09-09T14:59:00;22.80;91.90
3134;DHT22;1577;49.912;10.924;2022-09-09T15:01:26;22.70;92.30
3134;DHT22;1577;49.912;10.924;2022-09-09T15:04:03;22.70;92.70
3134;DHT22;1577;49.912;10.924;2022-09-09T15:06:31;22.70;93.00
3134;DHT22;1577;49.912;10.924;2022-09-09T15:08:59;22.80;92.60
3134;DHT22;1577;49.912;10.924;2022-09-09T15:11:30;22.80;90.60
3134;DHT22;1577;49.912;10.924;2022-09-09T15:13:57;22.80;90.10
3134;DHT22;1577;49.912;10.924;2022-09-09T15:16:26;22.80;89.70
3134;DHT22;1577;49.912;10.924;2022-09-09T15:18:54;22.80;87.90
3134;DHT22;1577;49.912;10.924;2022-09-09T15:21:22;22.70;89.90
3134;DHT22;1577;49.912;10.924;2022-09-09T15:23:49;22.60;90.50
3134;DHT22;1577;49.912;10.924;2022-09-09T15:26:15;22.50;91.10
3134;DHT22;1577;49.912;10.924;2022-09-09T15:28:42;22.40;91.30
3134;DHT22;1577;49.912;10.924;2022-09-09T15:31:15;22.30;91.20
3134;DHT22;1577;49.912;10.924;2022-09-09T15:33:47;22.30;91.40
3134;DHT22;1577;49.912;10.924;2022-09-09T15:36:19;22.30;91.70
3134;DHT22;1577;49.912;10.924;2022-09-09T15:38:45;22.30;91.90
3134;DHT22;1577;49.912;10.924;2022-09-09T15:41:12;22.20;91.70
3134;DHT22;1577;49.912;10.924;2022-09-09T15:43:38;22.20;91.50
3134;DHT22;1577;49.912;10.924;2022-09-09T15:48:42;22.10;90.70
3134;DHT22;1577;49.912;10.924;2022-09-09T15:51:10;22.00;90.70
3134;DHT22;1577;49.912;10.924;2022-09-09T15:53:36;22.00;90.70
3134;DHT22;1577;49.912;10.924;2022-09-09T15:56:05;21.90;90.60
3134;DHT22;1577;49.912;10.924;2022-09-09T15:58:32;21.90;90.70
3134;DHT22;1577;49.912;10.924;2022-09-09T16:01:08;21.80;90.60
3134;DHT22;1577;49.912;10.924;2022-09-09T16:03:38;21.80;90.20
3134;DHT22;1577;49.912;10.924;2022-09-09T16:06:05;21.90;90.00
3134;DHT22;1577;49.912;10.924;2022-09-09T16:08:35;21.80;89.60
3134;DHT22;1577;49.912;10.924;2022-09-09T16:11:08;21.80;89.70
3134;DHT22;1577;49.912;10.924;2022-09-09T16:13:38;21.70;89.50
3134;DHT22;1577;49.912;10.924;2022-09-09T16:16:06;21.70;90.20
3134;DHT22;1577;49.912;10.924;2022-09-09T16:18:46;21.60;90.30
3134;DHT22;1577;49.912;10.924;2022-09-09T16:21:18;21.60;90.30
3134;DHT22;1577;49.912;10.924;2022-09-09T16:23:44;21.50;90.60
3134;DHT22;1577;49.912;10.924;2022-09-09T16:26:15;21.50;90.80
3134;DHT22;1577;49.912;10.924;2022-09-09T16:28:41;21.50;90.90
3134;DHT22;1577;49.912;10.924;2022-09-09T16:31:10;21.40;90.80
3134;DHT22;1577;49.912;10.924;2022-09-09T16:33:37;21.40;91.00
3134;DHT22;1577;49.912;10.924;2022-09-09T16:36:17;21.30;91.10
3134;DHT22;1577;49.912;10.924;2022-09-09T16:38:43;21.20;91.40
3134;DHT22;1577;49.912;10.924;2022-09-09T16:41:10;21.20;91.40
3134;DHT22;1577;49.912;10.924;2022-09-09T16:43:36;21.10;91.40
3134;DHT22;1577;49.912;10.924;2022-09-09T16:46:08;21.10;91.60
3134;DHT22;1577;49.912;10.924;2022-09-09T16:48:36;21.00;91.60
3134;DHT22;1577;49.912;10.924;2022-09-09T16:51:07;21.00;91.60
3134;DHT22;1577;49.912;10.924;2022-09-09T16:53:34;21.00;91.90
3134;DHT22;1577;49.912;10.924;2022-09-09T16:56:11;21.00;92.10
3134;DHT22;1577;49.912;10.924;2022-09-09T16:58:37;20.90;92.80
3134;DHT22;1577;49.912;10.924;2022-09-09T17:01:03;20.80;93.40
3134;DHT22;1577;49.912;10.924;2022-09-09T17:03:30;20.80;93.80
3134;DHT22;1577;49.912;10.924;2022-09-09T17:05:57;20.60;93.90
3134;DHT22;1577;49.912;10.924;2022-09-09T17:08:23;20.60;94.10
3134;DHT22;1577;49.912;10.924;2022-09-09T17:10:49;20.50;94.40
3134;DHT22;1577;49.912;10.924;2022-09-09T17:13:15;20.40;94.50
3134;DHT22;1577;49.912;10.924;2022-09-09T17:15:45;20.30;94.70
3134;DHT22;1577;49.912;10.924;2022-09-09T17:18:12;20.30;94.90
3134;DHT22;1577;49.912;10.924;2022-09-09T17:20:39;20.20;95.20
3134;DHT22;1577;49.912;10.924;2022-09-09T17:23:06;20.20;95.30
3134;DHT22;1577;49.912;10.924;2022-09-09T17:25:32;20.10;95.50
3134;DHT22;1577;49.912;10.924;2022-09-09T17:27:59;20.10;95.50
3134;DHT22;1577;49.912;10.924;2022-09-09T17:30:25;20.10;95.50
3134;DHT22;1577;49.912;10.924;2022-09-09T17:32:51;20.10;95.90
3134;DHT22;1577;49.912;10.924;2022-09-09T17:35:17;20.00;95.40
3134;DHT22;1577;49.912;10.924;2022-09-09T17:37:43;20.00;95.20
3134;DHT22;1577;49.912;10.924;2022-09-09T17:40:10;19.90;95.00
3134;DHT22;1577;49.912;10.924;2022-09-09T17:42:35;19.90;94.80
3134;DHT22;1577;49.912;10.924;2022-09-09T17:45:01;19.90;94.60
3134;DHT22;1577;49.912;10.924;2022-09-09T17:47:27;19.90;94.40
3134;DHT22;1577;49.912;10.924;2022-09-09T17:49:53;19.90;94.40
3134;DHT22;1577;49.912;10.924;2022-09-09T17:52:19;19.80;94.00
3134;DHT22;1577;49.912;10.924;2022-09-09T17:54:45;19.90;93.30
3134;DHT22;1577;49.912;10.924;2022-09-09T17:57:11;19.80;92.90
3134;DHT22;1577;49.912;10.924;2022-09-09T17:59:36;19.80;93.10
3134;DHT22;1577;49.912;10.924;2022-09-09T18:02:02;19.80;92.80
3134;DHT22;1577;49.912;10.924;2022-09-09T18:04:30;19.80;93.00
3134;DHT22;1577;49.912;10.924;2022-09-09T18:06:56;19.80;92.90
3134;DHT22;1577;49.912;10.924;2022-09-09T18:09:24;19.80;92.90
3134;DHT22;1577;49.912;10.924;2022-09-09T18:11:52;19.70;92.90
3134;DHT22;1577;49.912;10.924;2022-09-09T18:14:24;19.60;92.90
3134;DHT22;1577;49.912;10.924;2022-09-09T18:16:50;19.60;93.10
3134;DHT22;1577;49.912;10.924;2022-09-09T18:19:19;19.60;93.20
3134;DHT22;1577;49.912;10.924;2022-09-09T18:21:46;19.60;93.60
3134;DHT22;1577;49.912;10.924;2022-09-09T18:24:12;19.50;93.60
3134;DHT22;1577;49.912;10.924;2022-09-09T18:26:39;19.40;94.00
3134;DHT22;1577;49.912;10.924;2022-09-09T18:29:09;19.40;93.90
3134;DHT22;1577;49.912;10.924;2022-09-09T18:31:36;19.40;94.30
3134;DHT22;1577;49.912;10.924;2022-09-09T18:34:08;19.30;94.40
3134;DHT22;1577;49.912;10.924;2022-09-09T18:36:37;19.30;94.50
3134;DHT22;1577;49.912;10.924;2022-09-09T18:39:04;19.20;94.60